Terminal Aerodrome Forecast
Issued by NWS

Home | Current Version | Previous Version | Graphics & Text | Print | Product List | Glossary On
Versions: 1 2 3 4 5 6 7 8 9 10 11 12 13 14 15
000
FTUS43 KIWX 310900 AAA
TAFSBN
TAF AMD
KSBN 310946Z 3110/0106 23006KT 6SM BR SCT015 BKN040
     FM311100 23003KT 5SM BR BKN008 OVC015
     FM311500 22005KT P6SM BKN020
     FM311800 23006KT P6SM SCT030=

USA.gov is the U.S. government's official web portal to all federal, state and local government web resources and services.